Terminal Aerodrome Forecast
Issued by NWS

Home | Current Version | Previous Version | Text Only | Print | Product List | Glossary Off
Versions: 1 2 3 4 5 6 7 8 9 10 11 12 13 14 15 16 17

523
FTUS43 KPAH 040803 AAA
TAFCGI
TAF AMD
KCGI 040803Z 0408/0506 06007KT P6SM OVC045
     FM041400 VRB04KT 5SM BR BKN015
     FM041800 21005KT P6SM VCSH BKN020
     FM042200 30006KT P6SM BKN025
     FM050100 32004KT P6SM SCT025 BKN050=

USA.gov is the U.S. government's official web portal to all federal, state and local government web resources and services.